sensor_id;sensor_type;location;lat;lon;timestamp;temperature;humidity
20700;DHT22;10511;51.232;9.420;2023-02-11T00:00:55;1.40;99.90
20700;DHT22;10511;51.232;9.420;2023-02-11T00:03:22;1.50;99.90
20700;DHT22;10511;51.232;9.420;2023-02-11T00:05:56;1.50;99.90
20700;DHT22;10511;51.232;9.420;2023-02-11T00:08:24;1.50;99.90
20700;DHT22;10511;51.232;9.420;2023-02-11T00:10:52;1.50;99.90
20700;DHT22;10511;51.232;9.420;2023-02-11T00:13:18;1.50;99.90
20700;DHT22;10511;51.232;9.420;2023-02-11T00:15:45;1.50;99.90
20700;DHT22;10511;51.232;9.420;2023-02-11T00:18:14;1.50;99.90
20700;DHT22;10511;51.232;9.420;2023-02-11T00:20:42;1.50;99.90
20700;DHT22;10511;51.232;9.420;2023-02-11T00:23:09;1.50;99.90
20700;DHT22;10511;51.232;9.420;2023-02-11T00:25:38;1.50;99.90
20700;DHT22;10511;51.232;9.420;2023-02-11T00:28:05;1.50;99.90
20700;DHT22;10511;51.232;9.420;2023-02-11T00:30:32;1.50;99.90
20700;DHT22;10511;51.232;9.420;2023-02-11T00:32:59;1.50;99.90
20700;DHT22;10511;51.232;9.420;2023-02-11T00:35:27;1.50;99.90
20700;DHT22;10511;51.232;9.420;2023-02-11T00:37:55;1.50;99.90
20700;DHT22;10511;51.232;9.420;2023-02-11T00:40:22;1.50;99.90
20700;DHT22;10511;51.232;9.420;2023-02-11T00:42:49;1.60;99.90
20700;DHT22;10511;51.232;9.420;2023-02-11T00:45:16;1.60;99.90
20700;DHT22;10511;51.232;9.420;2023-02-11T00:47:43;1.60;99.90
20700;DHT22;10511;51.232;9.420;2023-02-11T00:50:10;1.60;99.90
20700;DHT22;10511;51.232;9.420;2023-02-11T00:52:38;1.60;99.90
20700;DHT22;10511;51.232;9.420;2023-02-11T00:55:06;1.60;99.90
20700;DHT22;10511;51.232;9.420;2023-02-11T00:57:32;1.70;99.90
20700;DHT22;10511;51.232;9.420;2023-02-11T00:59:59;1.60;99.90
20700;DHT22;10511;51.232;9.420;2023-02-11T01:02:26;1.60;99.90
20700;DHT22;10511;51.232;9.420;2023-02-11T01:04:53;1.60;99.90
20700;DHT22;10511;51.232;9.420;2023-02-11T01:07:20;1.70;99.90
20700;DHT22;10511;51.232;9.420;2023-02-11T01:09:48;1.60;99.90
20700;DHT22;10511;51.232;9.420;2023-02-11T01:12:15;1.70;99.90
20700;DHT22;10511;51.232;9.420;2023-02-11T01:14:42;1.70;99.90
20700;DHT22;10511;51.232;9.420;2023-02-11T01:17:09;1.70;99.90
20700;DHT22;10511;51.232;9.420;2023-02-11T01:19:36;1.70;99.90
20700;DHT22;10511;51.232;9.420;2023-02-11T01:22:03;1.70;99.90
20700;DHT22;10511;51.232;9.420;2023-02-11T01:24:30;1.70;99.90
20700;DHT22;10511;51.232;9.420;2023-02-11T01:26:59;1.70;99.90
20700;DHT22;10511;51.232;9.420;2023-02-11T01:29:25;1.70;99.90
20700;DHT22;10511;51.232;9.420;2023-02-11T01:31:52;1.70;99.90
20700;DHT22;10511;51.232;9.420;2023-02-11T01:34:19;1.70;99.90
20700;DHT22;10511;51.232;9.420;2023-02-11T01:36:46;1.70;99.90
20700;DHT22;10511;51.232;9.420;2023-02-11T01:39:13;1.80;99.90
20700;DHT22;10511;51.232;9.420;2023-02-11T01:41:40;1.80;99.90
20700;DHT22;10511;51.232;9.420;2023-02-11T01:44:29;1.80;99.90
20700;DHT22;10511;51.232;9.420;2023-02-11T01:46:56;1.70;99.90
20700;DHT22;10511;51.232;9.420;2023-02-11T01:49:25;1.70;99.90
20700;DHT22;10511;51.232;9.420;2023-02-11T01:51:56;1.70;99.90
20700;DHT22;10511;51.232;9.420;2023-02-11T01:54:27;1.70;99.90
20700;DHT22;10511;51.232;9.420;2023-02-11T01:57:15;1.70;99.90
20700;DHT22;10511;51.232;9.420;2023-02-11T01:59:57;1.70;99.90
20700;DHT22;10511;51.232;9.420;2023-02-11T02:02:29;1.60;99.90
20700;DHT22;10511;51.232;9.420;2023-02-11T02:05:03;1.70;99.90
20700;DHT22;10511;51.232;9.420;2023-02-11T02:07:33;1.60;99.90
20700;DHT22;10511;51.232;9.420;2023-02-11T02:10:04;1.60;99.90
20700;DHT22;10511;51.232;9.420;2023-02-11T02:12:33;1.60;99.90
20700;DHT22;10511;51.232;9.420;2023-02-11T02:15:25;1.60;99.90
20700;DHT22;10511;51.232;9.420;2023-02-11T02:17:59;1.60;99.90
20700;DHT22;10511;51.232;9.420;2023-02-11T02:23:32;1.60;99.90
20700;DHT22;10511;51.232;9.420;2023-02-11T02:26:18;1.60;99.90
20700;DHT22;10511;51.232;9.420;2023-02-11T02:29:18;1.60;99.90
20700;DHT22;10511;51.232;9.420;2023-02-11T02:31:58;1.60;99.90
20700;DHT22;10511;51.232;9.420;2023-02-11T02:34:36;1.70;99.90
20700;DHT22;10511;51.232;9.420;2023-02-11T02:37:09;1.60;99.90
20700;DHT22;10511;51.232;9.420;2023-02-11T02:39:38;1.60;99.90
20700;DHT22;10511;51.232;9.420;2023-02-11T02:42:06;1.60;99.90
20700;DHT22;10511;51.232;9.420;2023-02-11T02:44:33;1.60;99.90
20700;DHT22;10511;51.232;9.420;2023-02-11T02:47:00;1.70;99.90
20700;DHT22;10511;51.232;9.420;2023-02-11T02:49:27;1.70;99.90
20700;DHT22;10511;51.232;9.420;2023-02-11T02:52:11;1.70;99.90
20700;DHT22;10511;51.232;9.420;2023-02-11T02:55:05;1.70;99.90
20700;DHT22;10511;51.232;9.420;2023-02-11T02:57:38;1.70;99.90
20700;DHT22;10511;51.232;9.420;2023-02-11T03:00:17;1.80;99.90
20700;DHT22;10511;51.232;9.420;2023-02-11T03:02:57;1.80;99.90
20700;DHT22;10511;51.232;9.420;2023-02-11T03:05:33;1.80;99.90
20700;DHT22;10511;51.232;9.420;2023-02-11T03:08:07;1.80;99.90
20700;DHT22;10511;51.232;9.420;2023-02-11T03:10:37;1.80;99.90
20700;DHT22;10511;51.232;9.420;2023-02-11T03:13:07;1.90;99.90
20700;DHT22;10511;51.232;9.420;2023-02-11T03:15:37;1.90;99.90
20700;DHT22;10511;51.232;9.420;2023-02-11T03:18:10;1.90;99.90
20700;DHT22;10511;51.232;9.420;2023-02-11T03:20:38;1.90;99.90
20700;DHT22;10511;51.232;9.420;2023-02-11T03:23:12;1.90;99.90
20700;DHT22;10511;51.232;9.420;2023-02-11T03:25:44;1.90;99.90
20700;DHT22;10511;51.232;9.420;2023-02-11T03:28:15;2.00;99.90
20700;DHT22;10511;51.232;9.420;2023-02-11T03:30:47;1.90;99.90
20700;DHT22;10511;51.232;9.420;2023-02-11T03:33:19;1.90;99.90
20700;DHT22;10511;51.232;9.420;2023-02-11T03:35:52;1.90;99.90
20700;DHT22;10511;51.232;9.420;2023-02-11T03:38:24;1.90;99.90
20700;DHT22;10511;51.232;9.420;2023-02-11T03:40:53;2.00;99.90
20700;DHT22;10511;51.232;9.420;2023-02-11T03:43:25;1.90;99.90
20700;DHT22;10511;51.232;9.420;2023-02-11T03:45:54;1.90;99.90
20700;DHT22;10511;51.232;9.420;2023-02-11T03:48:24;2.00;99.90
20700;DHT22;10511;51.232;9.420;2023-02-11T03:50:52;2.00;99.90
20700;DHT22;10511;51.232;9.420;2023-02-11T03:53:21;2.00;99.90
20700;DHT22;10511;51.232;9.420;2023-02-11T03:55:49;2.00;99.90
20700;DHT22;10511;51.232;9.420;2023-02-11T03:58:17;2.00;99.90
20700;DHT22;10511;51.232;9.420;2023-02-11T04:00:44;2.00;99.90
20700;DHT22;10511;51.232;9.420;2023-02-11T04:03:11;2.10;99.90
20700;DHT22;10511;51.232;9.420;2023-02-11T04:05:38;2.00;99.90
20700;DHT22;10511;51.232;9.420;2023-02-11T04:08:06;2.00;99.90
20700;DHT22;10511;51.232;9.420;2023-02-11T04:10:34;2.10;99.90
20700;DHT22;10511;51.232;9.420;2023-02-11T04:13:01;2.10;99.90
20700;DHT22;10511;51.232;9.420;2023-02-11T04:15:28;2.10;99.90
20700;DHT22;10511;51.232;9.420;2023-02-11T04:17:55;2.00;99.90
20700;DHT22;10511;51.232;9.420;2023-02-11T04:20:21;2.10;99.90
20700;DHT22;10511;51.232;9.420;2023-02-11T04:22:48;2.10;99.90
20700;DHT22;10511;51.232;9.420;2023-02-11T04:25:15;2.10;99.90
20700;DHT22;10511;51.232;9.420;2023-02-11T04:27:43;2.10;99.90
20700;DHT22;10511;51.232;9.420;2023-02-11T04:30:11;2.10;99.90
20700;DHT22;10511;51.232;9.420;2023-02-11T04:32:39;2.00;99.90
20700;DHT22;10511;51.232;9.420;2023-02-11T04:35:06;2.00;99.90
20700;DHT22;10511;51.232;9.420;2023-02-11T04:37:33;2.00;99.90
20700;DHT22;10511;51.232;9.420;2023-02-11T04:40:00;2.10;99.90
20700;DHT22;10511;51.232;9.420;2023-02-11T04:42:26;2.10;99.90
20700;DHT22;10511;51.232;9.420;2023-02-11T04:44:55;2.00;99.90
20700;DHT22;10511;51.232;9.420;2023-02-11T04:47:21;2.10;99.90
20700;DHT22;10511;51.232;9.420;2023-02-11T04:49:48;2.10;99.90
20700;DHT22;10511;51.232;9.420;2023-02-11T04:52:15;2.10;99.90
20700;DHT22;10511;51.232;9.420;2023-02-11T04:54:42;2.10;99.90
20700;DHT22;10511;51.232;9.420;2023-02-11T04:57:09;2.10;99.90
20700;DHT22;10511;51.232;9.420;2023-02-11T04:59:36;2.10;99.90
20700;DHT22;10511;51.232;9.420;2023-02-11T05:02:04;2.20;99.90
20700;DHT22;10511;51.232;9.420;2023-02-11T05:04:31;2.20;99.90
20700;DHT22;10511;51.232;9.420;2023-02-11T05:06:58;2.20;99.90
20700;DHT22;10511;51.232;9.420;2023-02-11T05:09:25;2.20;99.90
20700;DHT22;10511;51.232;9.420;2023-02-11T05:11:52;2.20;99.90
20700;DHT22;10511;51.232;9.420;2023-02-11T05:14:19;2.20;99.90
20700;DHT22;10511;51.232;9.420;2023-02-11T05:16:46;2.20;99.90
20700;DHT22;10511;51.232;9.420;2023-02-11T05:19:14;2.20;99.90
20700;DHT22;10511;51.232;9.420;2023-02-11T05:21:41;2.20;99.90
20700;DHT22;10511;51.232;9.420;2023-02-11T05:24:07;2.20;99.90
20700;DHT22;10511;51.232;9.420;2023-02-11T05:26:34;2.30;99.90
20700;DHT22;10511;51.232;9.420;2023-02-11T05:29:01;2.30;99.90
20700;DHT22;10511;51.232;9.420;2023-02-11T05:31:28;2.20;99.90
20700;DHT22;10511;51.232;9.420;2023-02-11T05:33:55;2.30;99.90
20700;DHT22;10511;51.232;9.420;2023-02-11T05:36:23;2.30;99.90
20700;DHT22;10511;51.232;9.420;2023-02-11T05:38:50;2.30;99.90
20700;DHT22;10511;51.232;9.420;2023-02-11T05:41:17;2.30;99.90
20700;DHT22;10511;51.232;9.420;2023-02-11T05:43:43;2.30;99.90
20700;DHT22;10511;51.232;9.420;2023-02-11T05:46:10;2.30;99.90
20700;DHT22;10511;51.232;9.420;2023-02-11T05:48:37;2.30;99.90
20700;DHT22;10511;51.232;9.420;2023-02-11T05:51:04;2.30;99.90
20700;DHT22;10511;51.232;9.420;2023-02-11T05:53:32;2.20;99.90
20700;DHT22;10511;51.232;9.420;2023-02-11T05:55:59;2.20;99.90
20700;DHT22;10511;51.232;9.420;2023-02-11T05:58:27;2.20;99.90
20700;DHT22;10511;51.232;9.420;2023-02-11T06:00:53;2.20;99.90
20700;DHT22;10511;51.232;9.420;2023-02-11T06:03:20;2.20;99.90
20700;DHT22;10511;51.232;9.420;2023-02-11T06:05:47;2.20;99.90
20700;DHT22;10511;51.232;9.420;2023-02-11T06:08:14;2.20;99.90
20700;DHT22;10511;51.232;9.420;2023-02-11T06:10:45;2.30;99.90
20700;DHT22;10511;51.232;9.420;2023-02-11T06:13:11;2.30;99.90
20700;DHT22;10511;51.232;9.420;2023-02-11T06:15:38;2.30;99.90
20700;DHT22;10511;51.232;9.420;2023-02-11T06:18:05;2.30;99.90
20700;DHT22;10511;51.232;9.420;2023-02-11T06:20:33;2.20;99.90
20700;DHT22;10511;51.232;9.420;2023-02-11T06:23:00;2.30;99.90
20700;DHT22;10511;51.232;9.420;2023-02-11T06:25:26;2.30;99.90
20700;DHT22;10511;51.232;9.420;2023-02-11T06:27:55;2.40;99.90
20700;DHT22;10511;51.232;9.420;2023-02-11T06:30:21;2.40;99.90
20700;DHT22;10511;51.232;9.420;2023-02-11T06:32:48;2.30;99.90
20700;DHT22;10511;51.232;9.420;2023-02-11T06:35:15;2.30;99.90
20700;DHT22;10511;51.232;9.420;2023-02-11T06:37:42;2.30;99.90
20700;DHT22;10511;51.232;9.420;2023-02-11T06:40:10;2.30;99.90
20700;DHT22;10511;51.232;9.420;2023-02-11T06:42:37;2.30;99.90
20700;DHT22;10511;51.232;9.420;2023-02-11T06:45:06;2.30;99.90
20700;DHT22;10511;51.232;9.420;2023-02-11T06:47:35;2.30;99.90
20700;DHT22;10511;51.232;9.420;2023-02-11T06:50:02;2.30;99.90
20700;DHT22;10511;51.232;9.420;2023-02-11T06:52:32;2.30;99.90
20700;DHT22;10511;51.232;9.420;2023-02-11T06:55:00;2.40;99.90
20700;DHT22;10511;51.232;9.420;2023-02-11T06:57:29;2.50;99.90
20700;DHT22;10511;51.232;9.420;2023-02-11T06:59:56;2.50;99.90
20700;DHT22;10511;51.232;9.420;2023-02-11T07:02:24;2.60;99.90
20700;DHT22;10511;51.232;9.420;2023-02-11T07:04:51;2.60;99.90
20700;DHT22;10511;51.232;9.420;2023-02-11T07:07:18;2.70;99.90
20700;DHT22;10511;51.232;9.420;2023-02-11T07:09:48;2.70;99.90
20700;DHT22;10511;51.232;9.420;2023-02-11T07:12:15;2.70;99.90
20700;DHT22;10511;51.232;9.420;2023-02-11T07:14:42;2.70;99.90
20700;DHT22;10511;51.232;9.420;2023-02-11T07:17:09;2.60;99.90
20700;DHT22;10511;51.232;9.420;2023-02-11T07:19:40;2.70;99.90
20700;DHT22;10511;51.232;9.420;2023-02-11T07:22:07;2.70;99.90
20700;DHT22;10511;51.232;9.420;2023-02-11T07:24:34;2.70;99.90
20700;DHT22;10511;51.232;9.420;2023-02-11T07:27:11;2.70;99.90
20700;DHT22;10511;51.232;9.420;2023-02-11T07:29:41;2.70;99.90
20700;DHT22;10511;51.232;9.420;2023-02-11T07:32:16;2.70;99.90
20700;DHT22;10511;51.232;9.420;2023-02-11T07:34:44;2.70;99.90
20700;DHT22;10511;51.232;9.420;2023-02-11T07:37:12;2.60;99.90
20700;DHT22;10511;51.232;9.420;2023-02-11T07:39:39;2.60;99.90
20700;DHT22;10511;51.232;9.420;2023-02-11T07:42:06;2.50;99.90
20700;DHT22;10511;51.232;9.420;2023-02-11T07:44:33;2.50;99.90
20700;DHT22;10511;51.232;9.420;2023-02-11T07:47:01;2.50;99.90
20700;DHT22;10511;51.232;9.420;2023-02-11T07:49:31;2.50;99.90
20700;DHT22;10511;51.232;9.420;2023-02-11T07:51:59;2.60;99.90
20700;DHT22;10511;51.232;9.420;2023-02-11T07:54:26;2.60;99.90
20700;DHT22;10511;51.232;9.420;2023-02-11T07:56:53;2.60;99.90
20700;DHT22;10511;51.232;9.420;2023-02-11T07:59:19;2.60;99.90
20700;DHT22;10511;51.232;9.420;2023-02-11T08:01:46;2.60;99.90
20700;DHT22;10511;51.232;9.420;2023-02-11T08:04:16;2.60;99.90
20700;DHT22;10511;51.232;9.420;2023-02-11T08:06:43;2.70;99.90
20700;DHT22;10511;51.232;9.420;2023-02-11T08:09:14;2.70;99.90
20700;DHT22;10511;51.232;9.420;2023-02-11T08:11:41;2.70;99.90
20700;DHT22;10511;51.232;9.420;2023-02-11T08:14:11;2.70;99.90
20700;DHT22;10511;51.232;9.420;2023-02-11T08:16:39;2.70;99.90
20700;DHT22;10511;51.232;9.420;2023-02-11T08:19:09;2.80;99.90
20700;DHT22;10511;51.232;9.420;2023-02-11T08:21:37;2.80;99.90
20700;DHT22;10511;51.232;9.420;2023-02-11T08:24:07;2.70;99.90
20700;DHT22;10511;51.232;9.420;2023-02-11T08:26:36;2.80;99.90
20700;DHT22;10511;51.232;9.420;2023-02-11T08:29:06;2.80;99.90
20700;DHT22;10511;51.232;9.420;2023-02-11T08:31:36;2.80;99.90
20700;DHT22;10511;51.232;9.420;2023-02-11T08:34:03;2.80;99.90
20700;DHT22;10511;51.232;9.420;2023-02-11T08:36:31;2.80;99.90
20700;DHT22;10511;51.232;9.420;2023-02-11T08:39:00;2.80;99.90
20700;DHT22;10511;51.232;9.420;2023-02-11T08:41:31;2.80;99.90
20700;DHT22;10511;51.232;9.420;2023-02-11T08:44:00;2.80;99.90
20700;DHT22;10511;51.232;9.420;2023-02-11T08:46:27;2.80;99.90
20700;DHT22;10511;51.232;9.420;2023-02-11T08:48:54;2.80;99.90
20700;DHT22;10511;51.232;9.420;2023-02-11T08:51:23;2.70;99.90
20700;DHT22;10511;51.232;9.420;2023-02-11T08:53:54;2.80;99.90
20700;DHT22;10511;51.232;9.420;2023-02-11T08:56:23;2.80;99.90
20700;DHT22;10511;51.232;9.420;2023-02-11T08:58:52;2.80;99.90
20700;DHT22;10511;51.232;9.420;2023-02-11T09:01:22;2.80;99.90
20700;DHT22;10511;51.232;9.420;2023-02-11T09:03:49;2.90;99.90
20700;DHT22;10511;51.232;9.420;2023-02-11T09:06:16;2.90;99.90
20700;DHT22;10511;51.232;9.420;2023-02-11T09:08:45;2.90;99.90
20700;DHT22;10511;51.232;9.420;2023-02-11T09:11:14;3.00;99.90
20700;DHT22;10511;51.232;9.420;2023-02-11T09:13:42;3.10;99.90
20700;DHT22;10511;51.232;9.420;2023-02-11T09:16:17;3.10;99.90
20700;DHT22;10511;51.232;9.420;2023-02-11T09:18:47;3.10;99.90
20700;DHT22;10511;51.232;9.420;2023-02-11T09:21:15;3.10;99.90
20700;DHT22;10511;51.232;9.420;2023-02-11T09:23:42;3.20;99.90
20700;DHT22;10511;51.232;9.420;2023-02-11T09:26:14;3.20;99.90
20700;DHT22;10511;51.232;9.420;2023-02-11T09:28:41;3.30;99.90
20700;DHT22;10511;51.232;9.420;2023-02-11T09:31:10;3.30;99.90
20700;DHT22;10511;51.232;9.420;2023-02-11T09:33:38;3.30;99.90
20700;DHT22;10511;51.232;9.420;2023-02-11T09:36:08;3.40;99.90
20700;DHT22;10511;51.232;9.420;2023-02-11T09:38:35;3.40;99.90
20700;DHT22;10511;51.232;9.420;2023-02-11T09:41:02;3.40;99.90
20700;DHT22;10511;51.232;9.420;2023-02-11T09:43:35;3.50;99.90
20700;DHT22;10511;51.232;9.420;2023-02-11T09:46:05;3.50;99.90
20700;DHT22;10511;51.232;9.420;2023-02-11T09:48:36;3.50;99.90
20700;DHT22;10511;51.232;9.420;2023-02-11T09:51:05;3.60;99.90
20700;DHT22;10511;51.232;9.420;2023-02-11T09:53:41;3.60;99.90
20700;DHT22;10511;51.232;9.420;2023-02-11T09:56:11;3.60;99.90
20700;DHT22;10511;51.232;9.420;2023-02-11T09:58:40;3.60;99.90
20700;DHT22;10511;51.232;9.420;2023-02-11T10:01:12;3.70;99.90
20700;DHT22;10511;51.232;9.420;2023-02-11T10:03:54;3.70;99.90
20700;DHT22;10511;51.232;9.420;2023-02-11T10:06:42;3.70;99.90
20700;DHT22;10511;51.232;9.420;2023-02-11T10:09:36;3.70;99.90
20700;DHT22;10511;51.232;9.420;2023-02-11T10:12:16;3.70;99.90
20700;DHT22;10511;51.232;9.420;2023-02-11T10:14:56;3.70;99.90
20700;DHT22;10511;51.232;9.420;2023-02-11T10:17:34;3.70;99.90
20700;DHT22;10511;51.232;9.420;2023-02-11T10:20:17;3.80;99.90
20700;DHT22;10511;51.232;9.420;2023-02-11T10:22:48;3.80;99.90
20700;DHT22;10511;51.232;9.420;2023-02-11T10:25:22;3.80;99.90
20700;DHT22;10511;51.232;9.420;2023-02-11T10:27:50;3.80;99.90
20700;DHT22;10511;51.232;9.420;2023-02-11T10:30:25;3.80;99.90
20700;DHT22;10511;51.232;9.420;2023-02-11T10:32:58;3.80;99.90
20700;DHT22;10511;51.232;9.420;2023-02-11T10:35:25;3.90;99.90
20700;DHT22;10511;51.232;9.420;2023-02-11T10:37:53;3.90;99.90
20700;DHT22;10511;51.232;9.420;2023-02-11T10:40:24;4.00;99.90
20700;DHT22;10511;51.232;9.420;2023-02-11T10:42:53;4.00;99.90
20700;DHT22;10511;51.232;9.420;2023-02-11T10:45:25;4.00;99.90
20700;DHT22;10511;51.232;9.420;2023-02-11T10:47:52;4.10;99.90
20700;DHT22;10511;51.232;9.420;2023-02-11T10:50:23;4.20;99.90
20700;DHT22;10511;51.232;9.420;2023-02-11T10:52:50;4.20;99.90
20700;DHT22;10511;51.232;9.420;2023-02-11T10:55:18;4.20;99.90
20700;DHT22;10511;51.232;9.420;2023-02-11T10:57:53;4.20;99.90
20700;DHT22;10511;51.232;9.420;2023-02-11T11:00:35;4.20;99.90
20700;DHT22;10511;51.232;9.420;2023-02-11T11:03:04;4.20;99.90
20700;DHT22;10511;51.232;9.420;2023-02-11T11:05:35;4.20;99.90
20700;DHT22;10511;51.232;9.420;2023-02-11T11:08:05;4.30;99.90
20700;DHT22;10511;51.232;9.420;2023-02-11T11:10:37;4.30;99.90
20700;DHT22;10511;51.232;9.420;2023-02-11T11:16:23;4.40;99.90
20700;DHT22;10511;51.232;9.420;2023-02-11T11:18:51;4.50;99.90
20700;DHT22;10511;51.232;9.420;2023-02-11T11:21:21;4.60;99.90
20700;DHT22;10511;51.232;9.420;2023-02-11T11:23:52;4.70;99.90
20700;DHT22;10511;51.232;9.420;2023-02-11T11:26:21;4.70;99.90
20700;DHT22;10511;51.232;9.420;2023-02-11T11:28:54;4.70;99.90
20700;DHT22;10511;51.232;9.420;2023-02-11T11:31:26;4.70;99.90
20700;DHT22;10511;51.232;9.420;2023-02-11T11:33:56;4.80;99.90
20700;DHT22;10511;51.232;9.420;2023-02-11T11:36:31;4.80;99.90
20700;DHT22;10511;51.232;9.420;2023-02-11T11:39:02;4.70;99.90
20700;DHT22;10511;51.232;9.420;2023-02-11T11:41:31;4.80;99.90
20700;DHT22;10511;51.232;9.420;2023-02-11T11:44:01;4.80;99.90
20700;DHT22;10511;51.232;9.420;2023-02-11T11:46:32;4.80;99.90
20700;DHT22;10511;51.232;9.420;2023-02-11T11:49:12;4.80;99.90
20700;DHT22;10511;51.232;9.420;2023-02-11T11:51:42;4.90;99.90
20700;DHT22;10511;51.232;9.420;2023-02-11T11:54:12;4.90;99.90
20700;DHT22;10511;51.232;9.420;2023-02-11T11:56:46;4.90;99.90
20700;DHT22;10511;51.232;9.420;2023-02-11T11:59:15;4.90;99.90
20700;DHT22;10511;51.232;9.420;2023-02-11T12:01:55;4.90;99.90
20700;DHT22;10511;51.232;9.420;2023-02-11T12:07:44;4.80;99.90
20700;DHT22;10511;51.232;9.420;2023-02-11T12:10:26;4.80;99.90
20700;DHT22;10511;51.232;9.420;2023-02-11T12:13:02;4.80;99.90
20700;DHT22;10511;51.232;9.420;2023-02-11T12:15:35;4.90;99.90
20700;DHT22;10511;51.232;9.420;2023-02-11T12:18:16;4.90;99.90
20700;DHT22;10511;51.232;9.420;2023-02-11T12:21:05;4.90;99.90
20700;DHT22;10511;51.232;9.420;2023-02-11T12:23:44;4.90;99.90
20700;DHT22;10511;51.232;9.420;2023-02-11T12:26:17;4.90;99.90
20700;DHT22;10511;51.232;9.420;2023-02-11T12:28:57;4.90;99.90
20700;DHT22;10511;51.232;9.420;2023-02-11T12:31:35;4.90;99.90
20700;DHT22;10511;51.232;9.420;2023-02-11T12:34:19;5.00;99.90
20700;DHT22;10511;51.232;9.420;2023-02-11T12:36:57;5.00;99.90
20700;DHT22;10511;51.232;9.420;2023-02-11T12:39:35;5.00;99.90
20700;DHT22;10511;51.232;9.420;2023-02-11T12:42:32;5.00;99.90
20700;DHT22;10511;51.232;9.420;2023-02-11T12:45:28;5.10;99.90
20700;DHT22;10511;51.232;9.420;2023-02-11T12:48:23;5.10;99.90
20700;DHT22;10511;51.232;9.420;2023-02-11T12:50:56;5.10;99.90
20700;DHT22;10511;51.232;9.420;2023-02-11T12:53:35;5.10;99.90
20700;DHT22;10511;51.232;9.420;2023-02-11T12:56:07;5.10;99.90
20700;DHT22;10511;51.232;9.420;2023-02-11T12:58:38;5.20;99.90
20700;DHT22;10511;51.232;9.420;2023-02-11T13:01:09;5.20;99.90
20700;DHT22;10511;51.232;9.420;2023-02-11T13:03:45;5.20;99.90
20700;DHT22;10511;51.232;9.420;2023-02-11T13:06:16;5.30;99.90
20700;DHT22;10511;51.232;9.420;2023-02-11T13:08:46;5.30;99.90
20700;DHT22;10511;51.232;9.420;2023-02-11T13:11:16;5.30;99.90
20700;DHT22;10511;51.232;9.420;2023-02-11T13:13:50;5.30;99.90
20700;DHT22;10511;51.232;9.420;2023-02-11T13:16:33;5.30;99.90
20700;DHT22;10511;51.232;9.420;2023-02-11T13:19:09;5.30;99.90
20700;DHT22;10511;51.232;9.420;2023-02-11T13:22:06;5.30;99.90
20700;DHT22;10511;51.232;9.420;2023-02-11T13:24:41;5.30;99.90
20700;DHT22;10511;51.232;9.420;2023-02-11T13:27:18;5.30;99.90
20700;DHT22;10511;51.232;9.420;2023-02-11T13:30:07;5.30;99.90
20700;DHT22;10511;51.232;9.420;2023-02-11T13:33:01;5.20;99.90
20700;DHT22;10511;51.232;9.420;2023-02-11T13:35:31;5.20;99.90
20700;DHT22;10511;51.232;9.420;2023-02-11T13:38:01;5.20;99.90
20700;DHT22;10511;51.232;9.420;2023-02-11T13:40:31;5.20;99.90
20700;DHT22;10511;51.232;9.420;2023-02-11T13:43:01;5.20;99.90
20700;DHT22;10511;51.232;9.420;2023-02-11T13:45:34;5.20;99.90
20700;DHT22;10511;51.232;9.420;2023-02-11T13:48:04;5.20;99.90
20700;DHT22;10511;51.232;9.420;2023-02-11T13:50:37;5.20;99.90
20700;DHT22;10511;51.232;9.420;2023-02-11T13:53:06;5.20;99.90
20700;DHT22;10511;51.232;9.420;2023-02-11T13:55:34;5.20;99.90
20700;DHT22;10511;51.232;9.420;2023-02-11T13:58:32;5.20;99.90
20700;DHT22;10511;51.232;9.420;2023-02-11T14:01:02;5.20;99.90
20700;DHT22;10511;51.232;9.420;2023-02-11T14:03:34;5.20;99.90
20700;DHT22;10511;51.232;9.420;2023-02-11T14:06:24;5.20;99.90
20700;DHT22;10511;51.232;9.420;2023-02-11T14:09:34;5.20;99.90
20700;DHT22;10511;51.232;9.420;2023-02-11T14:12:23;5.40;99.90
20700;DHT22;10511;51.232;9.420;2023-02-11T14:17:39;5.50;99.90
20700;DHT22;10511;51.232;9.420;2023-02-11T14:20:41;5.50;99.90
20700;DHT22;10511;51.232;9.420;2023-02-11T14:23:24;5.50;99.90
20700;DHT22;10511;51.232;9.420;2023-02-11T14:28:47;5.60;99.90
20700;DHT22;10511;51.232;9.420;2023-02-11T14:31:20;5.60;99.90
20700;DHT22;10511;51.232;9.420;2023-02-11T14:34:02;5.60;99.90
20700;DHT22;10511;51.232;9.420;2023-02-11T14:36:44;5.60;99.90
20700;DHT22;10511;51.232;9.420;2023-02-11T14:39:20;5.70;99.90
20700;DHT22;10511;51.232;9.420;2023-02-11T14:41:50;5.70;99.90
20700;DHT22;10511;51.232;9.420;2023-02-11T14:44:21;5.70;99.90
20700;DHT22;10511;51.232;9.420;2023-02-11T14:46:49;5.70;99.90
20700;DHT22;10511;51.232;9.420;2023-02-11T14:49:23;5.70;99.90
20700;DHT22;10511;51.232;9.420;2023-02-11T14:51:53;5.70;99.90
20700;DHT22;10511;51.232;9.420;2023-02-11T14:54:23;5.70;99.90
20700;DHT22;10511;51.232;9.420;2023-02-11T14:57:14;5.70;99.90
20700;DHT22;10511;51.232;9.420;2023-02-11T14:59:53;5.70;99.90
20700;DHT22;10511;51.232;9.420;2023-02-11T15:02:26;5.70;99.90
20700;DHT22;10511;51.232;9.420;2023-02-11T15:04:54;5.70;99.90
20700;DHT22;10511;51.232;9.420;2023-02-11T15:07:43;5.70;99.90
20700;DHT22;10511;51.232;9.420;2023-02-11T15:10:16;5.70;99.90
20700;DHT22;10511;51.232;9.420;2023-02-11T15:12:46;5.70;99.90
20700;DHT22;10511;51.232;9.420;2023-02-11T15:15:16;5.70;99.90
20700;DHT22;10511;51.232;9.420;2023-02-11T15:17:43;5.60;99.90
20700;DHT22;10511;51.232;9.420;2023-02-11T15:20:19;5.60;99.90
20700;DHT22;10511;51.232;9.420;2023-02-11T15:22:54;5.50;99.90
20700;DHT22;10511;51.232;9.420;2023-02-11T15:25:21;5.50;99.90
20700;DHT22;10511;51.232;9.420;2023-02-11T15:27:51;5.50;99.90
20700;DHT22;10511;51.232;9.420;2023-02-11T15:30:27;5.50;99.90
20700;DHT22;10511;51.232;9.420;2023-02-11T15:32:56;5.50;99.90
20700;DHT22;10511;51.232;9.420;2023-02-11T15:35:25;5.60;99.90
20700;DHT22;10511;51.232;9.420;2023-02-11T15:37:53;5.60;99.90
20700;DHT22;10511;51.232;9.420;2023-02-11T15:40:22;5.60;99.90
20700;DHT22;10511;51.232;9.420;2023-02-11T15:42:56;5.60;99.90
20700;DHT22;10511;51.232;9.420;2023-02-11T15:45:25;5.60;99.90
20700;DHT22;10511;51.232;9.420;2023-02-11T15:47:58;5.60;99.90
20700;DHT22;10511;51.232;9.420;2023-02-11T15:50:26;5.60;99.90
20700;DHT22;10511;51.232;9.420;2023-02-11T15:52:55;5.60;99.90
20700;DHT22;10511;51.232;9.420;2023-02-11T15:55:22;5.50;99.90
20700;DHT22;10511;51.232;9.420;2023-02-11T15:57:52;5.40;99.90
20700;DHT22;10511;51.232;9.420;2023-02-11T16:00:23;5.40;99.90
20700;DHT22;10511;51.232;9.420;2023-02-11T16:02:54;5.40;99.90
20700;DHT22;10511;51.232;9.420;2023-02-11T16:05:28;5.50;99.90
20700;DHT22;10511;51.232;9.420;2023-02-11T16:07:55;5.50;99.90
20700;DHT22;10511;51.232;9.420;2023-02-11T16:10:26;5.40;99.90
20700;DHT22;10511;51.232;9.420;2023-02-11T16:13:00;5.40;99.90
20700;DHT22;10511;51.232;9.420;2023-02-11T16:15:48;5.50;99.90
20700;DHT22;10511;51.232;9.420;2023-02-11T16:18:34;5.40;99.90
20700;DHT22;10511;51.232;9.420;2023-02-11T16:21:03;5.40;99.90
20700;DHT22;10511;51.232;9.420;2023-02-11T16:23:32;5.30;99.90
20700;DHT22;10511;51.232;9.420;2023-02-11T16:26:02;5.30;99.90